AirNav   Pilot Hours Calculator
 
 1394 users online  

MA70 Sudbury Airport
Sudbury, Massachusetts, USA

GOING TO SUDBURY?


FAA INFORMATION EFFECTIVE 03 NOVEMBER 2022

Location

FAA Identifier: MA70
Lat/Long: 42-21-03.3410N 071-25-47.2210W
42-21.055683N 071-25.787017W
42.3509281,-71.4297836
(estimated)
Elevation: 135 ft. / 41 m (estimated)
Variation: 16W (1985)
From city: 1 mile SW of SUDBURY, MA
Time zone: UTC -5 (UTC -4 during Daylight Saving Time)
Zip code: 01776

Airport Operations

Airport use: Private use. Permission required prior to landing
Activation date: 02/1970
Control tower: no
ARTCC: BOSTON CENTER
FSS: BRIDGEPORT FLIGHT SERVICE STATION
Attendance: UNATNDD
Wind indicator: yes
Segmented circle: no

Airport Communications

WX ASOS at BED (9 nm NE): 124.6 (781-274-9733)
WX ASOS at OWD (15 nm SE): 119.95 (781-762-4314)
WX ASOS at BOS (19 nm E): 135.0 (617-567-5762)
WX ASOS at FIT (19 nm NW): 135.175 (978-343-9121)

Nearby radio navigation aids

VOR radial/distance  VOR name  Freq  Var
BOSr285/19.5BOSTON VOR/DME112.7016W
PUTr052/30.0PUTNAM VOR/DME117.4014W
GDMr127/30.2GARDNER VOR/DME110.6014W
MHTr200/31.2MANCHESTER VOR/DME114.4015W
PVDr014/37.6PROVIDENCE VOR/DME115.6014W

Airport Services

Airframe service: NONE
Powerplant service: NONE

Runway Information

Runway 18/36

Dimensions: 1000 x 50 ft. / 305 x 15 m
Surface: turf
RUNWAY 18  RUNWAY 36
Traffic pattern: leftright
Obstructions: 50 ft. treesnone

Airport Ownership and Management from official FAA records

Ownership: Privately-owned
Owner: DAVID J. CLARK
118 NOBSCOT RD
SUDBURY, MA 01776
Phone 978-443=3880

Airport Operational Statistics

Aircraft based on the field: 1
Single engine airplanes: 1
    

Additional Remarks

FOR CD CTC BOSTON APCH AT 603-594-5551.

Instrument Procedures

There are no published instrument procedures at MA70.

Some nearby airports with instrument procedures:

6B6 - Minute Man Air Field (8 nm NW)
KBED - Laurence G Hanscom Field Airport (9 nm NE)
KOWD - Norwood Memorial Airport (15 nm SE)
1B6 - Hopedale Industrial Park Airport (15 nm S)
KBOS - General Edward Lawrence Logan International Airport (19 nm E)
KFIT - Fitchburg Municipal Airport (19 nm NW)
 
Loc | Ops | Rwys | IFR | FBO | Links
Com | Nav | Svcs | Stats | Notes
Area around MA70 (Sudbury Airport)
 
Road maps at: MapQuest Bing Google
 
Aerial photo
No photo
 
Sectional chart

 
Airport distance calculator
Flying to Sudbury Airport? Find the distance to fly.

From to MA70

Sunrise and sunset
Times for 29-Nov-2022
 Local
(UTC-5)
 Zulu
(UTC)
Morning civil twilight06:2311:23
Sunrise06:5411:54
Sunset16:1421:14
Evening civil twilight16:4521:45

Current date and time
Zulu (UTC)  29-Nov-2022 14:33:21
Local (UTC-5)  29-Nov-2022 09:33:21
 
METAR
KBED 
9nm NE 
291351Z 31004KT 10SM BKN029 01/M03 A3027 RMK AO2 SLP267 T00061033
KOWD 
15nm SE 
291353Z 32005KT 10SM OVC032 02/M03 A3028 RMK AO2 SLP254 T00171033
KBOS 
18nm E 
291354Z 31010KT 10SM BKN033 02/M04 A3028 RMK AO2 SLP254 T00221039
KFIT 
19nm NW 
291352Z AUTO 00000KT 10SM CLR 01/M04 A3028 RMK AO2 SLP259 T00111039
TAF
KBED 
9nm NE 
291121Z 2912/3012 35003KT P6SM FEW200 FM300900 00000KT P6SM OVC020
KBOS 
18nm E 
291121Z 2912/3018 34010KT P6SM FEW200 FM291600 03006KT P6SM BKN120 FM291800 11007KT P6SM FEW025 SCT035 FM300000 16007KT P6SM BKN080 FM301300 14011G17KT P6SM OVC025 FM301700 16016G26KT P6SM VCSH OVC015
NOTAMs
Click for the latest NOTAMs
NOTAMs are issued by the DoD/FAA and will open in a separate window not controlled by AirNav.

 

 
 

Would you like to see your business listed on this page?

 If your business provides an interesting product or service to pilots, flight crews, aircraft, or users of the Sudbury Airport, you should consider listing it here.  To start the listing process, click on the button below
 
Add a business
 

Other Pages about Sudbury Airport

Update a link
 
Copyright © AirNav, LLC. All rights reserved. Privacy Policy  Contact